sensor_id;sensor_type;location;lat;lon;timestamp;P1;durP1;ratioP1;P2;durP2;ratioP2
16228;SDS011;8222;51.462;12.630;2023-02-08T00:00:38;47.50;;;25.42;;
16228;SDS011;8222;51.462;12.630;2023-02-08T00:03:06;46.50;;;26.98;;
16228;SDS011;8222;51.462;12.630;2023-02-08T00:05:31;51.87;;;27.57;;
16228;SDS011;8222;51.462;12.630;2023-02-08T00:07:57;41.70;;;24.70;;
16228;SDS011;8222;51.462;12.630;2023-02-08T00:10:23;45.63;;;27.05;;
16228;SDS011;8222;51.462;12.630;2023-02-08T00:12:51;45.40;;;26.10;;
16228;SDS011;8222;51.462;12.630;2023-02-08T00:15:17;48.83;;;29.92;;
16228;SDS011;8222;51.462;12.630;2023-02-08T00:17:44;52.47;;;31.13;;
16228;SDS011;8222;51.462;12.630;2023-02-08T00:20:12;47.90;;;27.80;;
16228;SDS011;8222;51.462;12.630;2023-02-08T00:22:38;46.00;;;26.88;;
16228;SDS011;8222;51.462;12.630;2023-02-08T00:25:06;43.95;;;27.23;;
16228;SDS011;8222;51.462;12.630;2023-02-08T00:27:32;46.90;;;28.35;;
16228;SDS011;8222;51.462;12.630;2023-02-08T00:29:58;43.67;;;25.67;;
16228;SDS011;8222;51.462;12.630;2023-02-08T00:32:24;33.40;;;21.63;;
16228;SDS011;8222;51.462;12.630;2023-02-08T00:34:52;47.97;;;28.73;;
16228;SDS011;8222;51.462;12.630;2023-02-08T00:37:17;33.60;;;20.37;;
16228;SDS011;8222;51.462;12.630;2023-02-08T00:39:43;51.27;;;30.00;;
16228;SDS011;8222;51.462;12.630;2023-02-08T00:42:09;49.10;;;26.50;;
16228;SDS011;8222;51.462;12.630;2023-02-08T00:44:34;53.17;;;29.57;;
16228;SDS011;8222;51.462;12.630;2023-02-08T00:47:00;51.33;;;29.67;;
16228;SDS011;8222;51.462;12.630;2023-02-08T00:49:27;48.60;;;28.70;;
16228;SDS011;8222;51.462;12.630;2023-02-08T00:51:56;41.87;;;25.00;;
16228;SDS011;8222;51.462;12.630;2023-02-08T00:54:21;48.00;;;28.65;;
16228;SDS011;8222;51.462;12.630;2023-02-08T00:56:47;49.13;;;28.92;;
16228;SDS011;8222;51.462;12.630;2023-02-08T00:59:13;56.13;;;30.60;;
16228;SDS011;8222;51.462;12.630;2023-02-08T01:01:39;48.70;;;29.98;;
16228;SDS011;8222;51.462;12.630;2023-02-08T01:04:05;42.30;;;24.60;;
16228;SDS011;8222;51.462;12.630;2023-02-08T01:06:31;45.15;;;27.95;;
16228;SDS011;8222;51.462;12.630;2023-02-08T01:08:56;45.30;;;26.48;;
16228;SDS011;8222;51.462;12.630;2023-02-08T01:11:23;47.78;;;28.73;;
16228;SDS011;8222;51.462;12.630;2023-02-08T01:13:50;35.35;;;21.58;;
16228;SDS011;8222;51.462;12.630;2023-02-08T01:16:22;43.08;;;25.25;;
16228;SDS011;8222;51.462;12.630;2023-02-08T01:18:50;45.22;;;28.15;;
16228;SDS011;8222;51.462;12.630;2023-02-08T01:21:19;46.15;;;29.20;;
16228;SDS011;8222;51.462;12.630;2023-02-08T01:23:47;45.15;;;28.33;;
16228;SDS011;8222;51.462;12.630;2023-02-08T01:26:14;43.83;;;26.00;;
16228;SDS011;8222;51.462;12.630;2023-02-08T01:28:40;40.60;;;25.23;;
16228;SDS011;8222;51.462;12.630;2023-02-08T01:31:12;47.67;;;27.30;;
16228;SDS011;8222;51.462;12.630;2023-02-08T01:33:39;39.00;;;24.13;;
16228;SDS011;8222;51.462;12.630;2023-02-08T01:36:05;36.72;;;22.20;;
16228;SDS011;8222;51.462;12.630;2023-02-08T01:38:31;36.23;;;23.50;;
16228;SDS011;8222;51.462;12.630;2023-02-08T01:41:00;38.22;;;24.20;;
16228;SDS011;8222;51.462;12.630;2023-02-08T01:43:27;38.15;;;24.10;;
16228;SDS011;8222;51.462;12.630;2023-02-08T01:45:58;35.03;;;20.35;;
16228;SDS011;8222;51.462;12.630;2023-02-08T01:48:31;34.25;;;21.67;;
16228;SDS011;8222;51.462;12.630;2023-02-08T01:51:13;42.25;;;25.55;;
16228;SDS011;8222;51.462;12.630;2023-02-08T01:53:42;41.30;;;26.52;;
16228;SDS011;8222;51.462;12.630;2023-02-08T01:56:10;39.58;;;23.95;;
16228;SDS011;8222;51.462;12.630;2023-02-08T01:58:41;43.37;;;25.60;;
16228;SDS011;8222;51.462;12.630;2023-02-08T02:01:10;43.15;;;25.65;;
16228;SDS011;8222;51.462;12.630;2023-02-08T02:03:36;41.53;;;25.77;;
16228;SDS011;8222;51.462;12.630;2023-02-08T02:06:06;37.42;;;23.00;;
16228;SDS011;8222;51.462;12.630;2023-02-08T02:08:35;40.92;;;25.73;;
16228;SDS011;8222;51.462;12.630;2023-02-08T02:11:01;44.15;;;26.88;;
16228;SDS011;8222;51.462;12.630;2023-02-08T02:13:29;47.53;;;28.10;;
16228;SDS011;8222;51.462;12.630;2023-02-08T02:15:56;39.65;;;23.73;;
16228;SDS011;8222;51.462;12.630;2023-02-08T02:18:26;39.33;;;23.77;;
16228;SDS011;8222;51.462;12.630;2023-02-08T02:40:16;51.55;;;28.92;;
16228;SDS011;8222;51.462;12.630;2023-02-08T02:45:45;46.72;;;27.95;;
16228;SDS011;8222;51.462;12.630;2023-02-08T02:48:22;48.45;;;27.88;;
16228;SDS011;8222;51.462;12.630;2023-02-08T02:51:02;51.10;;;29.43;;
16228;SDS011;8222;51.462;12.630;2023-02-08T02:53:43;50.63;;;29.88;;
16228;SDS011;8222;51.462;12.630;2023-02-08T02:56:13;44.72;;;25.52;;
16228;SDS011;8222;51.462;12.630;2023-02-08T02:58:43;45.25;;;28.20;;
16228;SDS011;8222;51.462;12.630;2023-02-08T03:01:09;45.85;;;27.92;;
16228;SDS011;8222;51.462;12.630;2023-02-08T03:03:35;50.85;;;29.25;;
16228;SDS011;8222;51.462;12.630;2023-02-08T03:06:11;44.30;;;26.60;;
16228;SDS011;8222;51.462;12.630;2023-02-08T03:11:31;49.30;;;27.92;;
16228;SDS011;8222;51.462;12.630;2023-02-08T03:14:19;43.38;;;25.25;;
16228;SDS011;8222;51.462;12.630;2023-02-08T03:19:57;55.92;;;30.40;;
16228;SDS011;8222;51.462;12.630;2023-02-08T03:36:16;44.88;;;26.08;;
16228;SDS011;8222;51.462;12.630;2023-02-08T03:38:57;50.42;;;28.27;;
16228;SDS011;8222;51.462;12.630;2023-02-08T03:41:36;52.88;;;29.98;;
16228;SDS011;8222;51.462;12.630;2023-02-08T03:44:14;39.95;;;23.80;;
16228;SDS011;8222;51.462;12.630;2023-02-08T03:46:54;48.28;;;28.52;;
16228;SDS011;8222;51.462;12.630;2023-02-08T03:49:24;51.38;;;29.90;;
16228;SDS011;8222;51.462;12.630;2023-02-08T03:51:57;44.55;;;25.42;;
16228;SDS011;8222;51.462;12.630;2023-02-08T03:54:25;33.90;;;21.47;;
16228;SDS011;8222;51.462;12.630;2023-02-08T04:00:08;54.08;;;31.10;;
16228;SDS011;8222;51.462;12.630;2023-02-08T04:02:37;53.47;;;29.63;;
16228;SDS011;8222;51.462;12.630;2023-02-08T04:05:10;45.72;;;28.17;;
16228;SDS011;8222;51.462;12.630;2023-02-08T04:07:37;48.63;;;28.83;;
16228;SDS011;8222;51.462;12.630;2023-02-08T04:10:03;41.83;;;24.77;;
16228;SDS011;8222;51.462;12.630;2023-02-08T04:12:28;46.03;;;27.05;;
16228;SDS011;8222;51.462;12.630;2023-02-08T04:14:54;42.47;;;26.27;;
16228;SDS011;8222;51.462;12.630;2023-02-08T04:17:22;46.35;;;27.25;;
16228;SDS011;8222;51.462;12.630;2023-02-08T04:19:47;36.80;;;22.77;;
16228;SDS011;8222;51.462;12.630;2023-02-08T04:22:13;37.08;;;23.25;;
16228;SDS011;8222;51.462;12.630;2023-02-08T04:24:42;42.83;;;25.55;;
16228;SDS011;8222;51.462;12.630;2023-02-08T04:27:08;42.20;;;26.07;;
16228;SDS011;8222;51.462;12.630;2023-02-08T04:29:33;37.30;;;19.63;;
16228;SDS011;8222;51.462;12.630;2023-02-08T04:31:59;38.57;;;24.90;;
16228;SDS011;8222;51.462;12.630;2023-02-08T04:34:25;40.40;;;25.00;;
16228;SDS011;8222;51.462;12.630;2023-02-08T04:36:51;43.55;;;25.48;;
16228;SDS011;8222;51.462;12.630;2023-02-08T04:39:17;48.15;;;28.60;;
16228;SDS011;8222;51.462;12.630;2023-02-08T04:41:43;67.43;;;40.80;;
16228;SDS011;8222;51.462;12.630;2023-02-08T04:44:10;47.38;;;29.35;;
16228;SDS011;8222;51.462;12.630;2023-02-08T04:46:36;43.50;;;28.90;;
16228;SDS011;8222;51.462;12.630;2023-02-08T04:49:02;46.35;;;28.48;;
16228;SDS011;8222;51.462;12.630;2023-02-08T04:51:27;35.77;;;19.57;;
16228;SDS011;8222;51.462;12.630;2023-02-08T04:53:55;26.40;;;18.30;;
16228;SDS011;8222;51.462;12.630;2023-02-08T04:56:20;41.80;;;25.57;;
16228;SDS011;8222;51.462;12.630;2023-02-08T04:58:47;46.50;;;27.17;;
16228;SDS011;8222;51.462;12.630;2023-02-08T05:01:12;38.30;;;24.23;;
16228;SDS011;8222;51.462;12.630;2023-02-08T05:03:40;37.97;;;23.70;;
16228;SDS011;8222;51.462;12.630;2023-02-08T05:06:05;39.40;;;24.38;;
16228;SDS011;8222;51.462;12.630;2023-02-08T05:08:31;39.10;;;25.05;;
16228;SDS011;8222;51.462;12.630;2023-02-08T05:11:01;40.58;;;24.30;;
16228;SDS011;8222;51.462;12.630;2023-02-08T05:13:27;40.50;;;24.80;;
16228;SDS011;8222;51.462;12.630;2023-02-08T05:15:53;38.47;;;24.30;;
16228;SDS011;8222;51.462;12.630;2023-02-08T05:18:18;36.40;;;23.03;;
16228;SDS011;8222;51.462;12.630;2023-02-08T05:20:52;38.20;;;23.48;;
16228;SDS011;8222;51.462;12.630;2023-02-08T05:23:19;33.53;;;19.17;;
16228;SDS011;8222;51.462;12.630;2023-02-08T05:25:44;39.97;;;25.27;;
16228;SDS011;8222;51.462;12.630;2023-02-08T05:28:10;36.90;;;22.03;;
16228;SDS011;8222;51.462;12.630;2023-02-08T05:30:36;39.45;;;25.25;;
16228;SDS011;8222;51.462;12.630;2023-02-08T05:33:02;39.75;;;26.35;;
16228;SDS011;8222;51.462;12.630;2023-02-08T05:35:28;40.13;;;25.03;;
16228;SDS011;8222;51.462;12.630;2023-02-08T05:37:53;30.80;;;18.27;;
16228;SDS011;8222;51.462;12.630;2023-02-08T05:40:21;39.58;;;24.33;;
16228;SDS011;8222;51.462;12.630;2023-02-08T05:42:47;40.40;;;23.60;;
16228;SDS011;8222;51.462;12.630;2023-02-08T05:45:13;37.90;;;23.58;;
16228;SDS011;8222;51.462;12.630;2023-02-08T05:47:39;35.22;;;22.70;;
16228;SDS011;8222;51.462;12.630;2023-02-08T05:50:10;38.58;;;25.10;;
16228;SDS011;8222;51.462;12.630;2023-02-08T05:52:35;36.20;;;23.02;;
16228;SDS011;8222;51.462;12.630;2023-02-08T05:55:01;33.20;;;22.93;;
16228;SDS011;8222;51.462;12.630;2023-02-08T05:57:27;37.90;;;23.73;;
16228;SDS011;8222;51.462;12.630;2023-02-08T05:59:52;34.10;;;22.08;;
16228;SDS011;8222;51.462;12.630;2023-02-08T06:02:18;30.90;;;20.65;;
16228;SDS011;8222;51.462;12.630;2023-02-08T06:04:43;31.83;;;21.53;;
16228;SDS011;8222;51.462;12.630;2023-02-08T06:07:10;38.63;;;24.67;;
16228;SDS011;8222;51.462;12.630;2023-02-08T06:09:36;37.08;;;24.25;;
16228;SDS011;8222;51.462;12.630;2023-02-08T06:12:01;36.03;;;24.15;;
16228;SDS011;8222;51.462;12.630;2023-02-08T06:14:29;36.20;;;23.40;;
16228;SDS011;8222;51.462;12.630;2023-02-08T06:16:55;34.77;;;23.07;;
16228;SDS011;8222;51.462;12.630;2023-02-08T06:19:20;33.87;;;21.77;;
16228;SDS011;8222;51.462;12.630;2023-02-08T06:21:46;38.80;;;24.77;;
16228;SDS011;8222;51.462;12.630;2023-02-08T06:24:12;36.28;;;23.15;;
16228;SDS011;8222;51.462;12.630;2023-02-08T06:26:38;50.40;;;33.07;;
16228;SDS011;8222;51.462;12.630;2023-02-08T06:29:06;36.28;;;24.67;;
16228;SDS011;8222;51.462;12.630;2023-02-08T06:31:31;38.83;;;25.15;;
16228;SDS011;8222;51.462;12.630;2023-02-08T06:33:57;33.97;;;22.40;;
16228;SDS011;8222;51.462;12.630;2023-02-08T06:36:23;39.97;;;23.00;;
16228;SDS011;8222;51.462;12.630;2023-02-08T06:38:48;34.55;;;24.08;;
16228;SDS011;8222;51.462;12.630;2023-02-08T06:41:14;34.03;;;22.80;;
16228;SDS011;8222;51.462;12.630;2023-02-08T06:43:40;38.40;;;25.30;;
16228;SDS011;8222;51.462;12.630;2023-02-08T06:46:07;35.60;;;21.65;;
16228;SDS011;8222;51.462;12.630;2023-02-08T06:48:33;41.13;;;26.03;;
16228;SDS011;8222;51.462;12.630;2023-02-08T06:50:59;45.08;;;27.00;;
16228;SDS011;8222;51.462;12.630;2023-02-08T06:53:28;37.17;;;24.92;;
16228;SDS011;8222;51.462;12.630;2023-02-08T06:55:54;34.20;;;21.80;;
16228;SDS011;8222;51.462;12.630;2023-02-08T06:58:19;36.80;;;24.00;;
16228;SDS011;8222;51.462;12.630;2023-02-08T07:00:45;46.00;;;27.17;;
16228;SDS011;8222;51.462;12.630;2023-02-08T07:03:11;42.55;;;26.55;;
16228;SDS011;8222;51.462;12.630;2023-02-08T07:05:39;42.88;;;26.40;;
16228;SDS011;8222;51.462;12.630;2023-02-08T07:08:05;37.72;;;23.55;;
16228;SDS011;8222;51.462;12.630;2023-02-08T07:10:31;40.25;;;26.98;;
16228;SDS011;8222;51.462;12.630;2023-02-08T07:12:58;43.63;;;27.83;;
16228;SDS011;8222;51.462;12.630;2023-02-08T07:15:23;38.08;;;25.77;;
16228;SDS011;8222;51.462;12.630;2023-02-08T07:17:49;35.67;;;22.05;;
16228;SDS011;8222;51.462;12.630;2023-02-08T07:20:18;41.20;;;25.97;;
16228;SDS011;8222;51.462;12.630;2023-02-08T07:22:44;42.83;;;26.70;;
16228;SDS011;8222;51.462;12.630;2023-02-08T07:25:10;42.25;;;25.50;;
16228;SDS011;8222;51.462;12.630;2023-02-08T07:27:35;39.42;;;24.80;;
16228;SDS011;8222;51.462;12.630;2023-02-08T07:30:03;44.05;;;26.98;;
16228;SDS011;8222;51.462;12.630;2023-02-08T07:32:29;39.72;;;25.67;;
16228;SDS011;8222;51.462;12.630;2023-02-08T07:34:54;40.30;;;25.80;;
16228;SDS011;8222;51.462;12.630;2023-02-08T07:37:22;42.72;;;26.02;;
16228;SDS011;8222;51.462;12.630;2023-02-08T07:39:47;44.43;;;28.67;;
16228;SDS011;8222;51.462;12.630;2023-02-08T07:42:13;44.97;;;29.23;;
16228;SDS011;8222;51.462;12.630;2023-02-08T07:44:38;43.28;;;26.83;;
16228;SDS011;8222;51.462;12.630;2023-02-08T07:47:05;37.23;;;26.40;;
16228;SDS011;8222;51.462;12.630;2023-02-08T07:49:31;42.65;;;30.27;;
16228;SDS011;8222;51.462;12.630;2023-02-08T07:52:00;36.63;;;24.92;;
16228;SDS011;8222;51.462;12.630;2023-02-08T07:54:27;45.58;;;29.23;;
16228;SDS011;8222;51.462;12.630;2023-02-08T07:56:53;84.45;;;46.22;;
16228;SDS011;8222;51.462;12.630;2023-02-08T07:59:21;51.92;;;33.05;;
16228;SDS011;8222;51.462;12.630;2023-02-08T08:01:46;37.47;;;24.10;;
16228;SDS011;8222;51.462;12.630;2023-02-08T08:04:12;41.70;;;29.23;;
16228;SDS011;8222;51.462;12.630;2023-02-08T08:06:38;41.67;;;22.80;;
16228;SDS011;8222;51.462;12.630;2023-02-08T08:09:03;36.05;;;22.30;;
16228;SDS011;8222;51.462;12.630;2023-02-08T08:11:30;45.85;;;31.20;;
16228;SDS011;8222;51.462;12.630;2023-02-08T08:13:58;40.45;;;26.73;;
16228;SDS011;8222;51.462;12.630;2023-02-08T08:16:23;36.50;;;24.10;;
16228;SDS011;8222;51.462;12.630;2023-02-08T08:18:49;35.30;;;23.50;;
16228;SDS011;8222;51.462;12.630;2023-02-08T08:21:15;40.40;;;27.55;;
16228;SDS011;8222;51.462;12.630;2023-02-08T08:23:41;40.38;;;28.85;;
16228;SDS011;8222;51.462;12.630;2023-02-08T08:26:09;35.45;;;25.63;;
16228;SDS011;8222;51.462;12.630;2023-02-08T08:28:40;41.70;;;28.05;;
16228;SDS011;8222;51.462;12.630;2023-02-08T08:31:09;44.72;;;28.77;;
16228;SDS011;8222;51.462;12.630;2023-02-08T08:33:36;39.93;;;27.47;;
16228;SDS011;8222;51.462;12.630;2023-02-08T08:36:04;42.75;;;30.60;;
16228;SDS011;8222;51.462;12.630;2023-02-08T08:38:32;40.30;;;29.60;;
16228;SDS011;8222;51.462;12.630;2023-02-08T08:40:58;33.13;;;23.57;;
16228;SDS011;8222;51.462;12.630;2023-02-08T08:43:24;42.38;;;29.83;;
16228;SDS011;8222;51.462;12.630;2023-02-08T08:45:51;39.92;;;27.98;;
16228;SDS011;8222;51.462;12.630;2023-02-08T08:48:17;40.43;;;28.53;;
16228;SDS011;8222;51.462;12.630;2023-02-08T08:50:42;36.92;;;24.27;;
16228;SDS011;8222;51.462;12.630;2023-02-08T08:53:08;40.87;;;29.00;;
16228;SDS011;8222;51.462;12.630;2023-02-08T08:55:34;45.13;;;31.70;;
16228;SDS011;8222;51.462;12.630;2023-02-08T08:57:59;39.47;;;27.33;;
16228;SDS011;8222;51.462;12.630;2023-02-08T09:00:25;40.35;;;30.27;;
16228;SDS011;8222;51.462;12.630;2023-02-08T09:02:51;43.78;;;31.52;;
16228;SDS011;8222;51.462;12.630;2023-02-08T09:05:17;41.42;;;30.63;;
16228;SDS011;8222;51.462;12.630;2023-02-08T09:07:44;40.60;;;29.15;;
16228;SDS011;8222;51.462;12.630;2023-02-08T09:10:10;36.87;;;26.60;;
16228;SDS011;8222;51.462;12.630;2023-02-08T09:12:36;41.85;;;30.55;;
16228;SDS011;8222;51.462;12.630;2023-02-08T09:15:01;38.83;;;28.83;;
16228;SDS011;8222;51.462;12.630;2023-02-08T09:17:28;43.33;;;31.08;;
16228;SDS011;8222;51.462;12.630;2023-02-08T09:19:53;36.30;;;28.58;;
16228;SDS011;8222;51.462;12.630;2023-02-08T09:22:19;39.73;;;26.90;;
16228;SDS011;8222;51.462;12.630;2023-02-08T09:24:44;37.65;;;27.60;;
16228;SDS011;8222;51.462;12.630;2023-02-08T09:27:10;41.63;;;29.40;;
16228;SDS011;8222;51.462;12.630;2023-02-08T09:29:36;40.20;;;29.13;;
16228;SDS011;8222;51.462;12.630;2023-02-08T09:32:02;38.47;;;26.30;;
16228;SDS011;8222;51.462;12.630;2023-02-08T09:34:29;36.97;;;28.60;;
16228;SDS011;8222;51.462;12.630;2023-02-08T09:36:55;37.63;;;28.63;;
16228;SDS011;8222;51.462;12.630;2023-02-08T09:39:22;37.65;;;28.50;;
16228;SDS011;8222;51.462;12.630;2023-02-08T09:44:22;38.65;;;28.10;;
16228;SDS011;8222;51.462;12.630;2023-02-08T09:47:14;38.10;;;28.13;;
16228;SDS011;8222;51.462;12.630;2023-02-08T09:52:23;37.45;;;27.60;;
16228;SDS011;8222;51.462;12.630;2023-02-08T09:54:56;39.20;;;29.33;;
16228;SDS011;8222;51.462;12.630;2023-02-08T09:57:29;27.60;;;22.57;;
16228;SDS011;8222;51.462;12.630;2023-02-08T10:00:05;36.35;;;25.98;;
16228;SDS011;8222;51.462;12.630;2023-02-08T10:02:42;38.83;;;28.25;;
16228;SDS011;8222;51.462;12.630;2023-02-08T10:07:33;37.50;;;29.30;;
16228;SDS011;8222;51.462;12.630;2023-02-08T10:10:02;36.40;;;26.65;;
16228;SDS011;8222;51.462;12.630;2023-02-08T10:12:40;40.13;;;27.05;;
16228;SDS011;8222;51.462;12.630;2023-02-08T10:18:07;38.72;;;29.73;;
16228;SDS011;8222;51.462;12.630;2023-02-08T10:21:08;34.60;;;27.13;;
16228;SDS011;8222;51.462;12.630;2023-02-08T10:27:16;34.58;;;28.38;;
16228;SDS011;8222;51.462;12.630;2023-02-08T10:30:09;38.78;;;29.25;;
16228;SDS011;8222;51.462;12.630;2023-02-08T10:35:26;34.28;;;27.55;;
16228;SDS011;8222;51.462;12.630;2023-02-08T10:38:03;36.90;;;27.88;;
16228;SDS011;8222;51.462;12.630;2023-02-08T10:40:40;34.60;;;27.70;;
16228;SDS011;8222;51.462;12.630;2023-02-08T10:43:13;34.93;;;28.57;;
16228;SDS011;8222;51.462;12.630;2023-02-08T10:51:44;37.63;;;28.67;;
16228;SDS011;8222;51.462;12.630;2023-02-08T10:54:22;35.20;;;27.08;;
16228;SDS011;8222;51.462;12.630;2023-02-08T11:01:51;32.58;;;25.00;;
16228;SDS011;8222;51.462;12.630;2023-02-08T11:04:18;35.20;;;26.42;;
16228;SDS011;8222;51.462;12.630;2023-02-08T11:06:44;35.45;;;27.48;;
16228;SDS011;8222;51.462;12.630;2023-02-08T11:09:21;37.47;;;29.40;;
16228;SDS011;8222;51.462;12.630;2023-02-08T11:11:55;33.17;;;27.98;;
16228;SDS011;8222;51.462;12.630;2023-02-08T11:14:26;38.95;;;30.17;;
16228;SDS011;8222;51.462;12.630;2023-02-08T11:17:00;36.33;;;29.23;;
16228;SDS011;8222;51.462;12.630;2023-02-08T11:19:37;34.00;;;29.33;;
16228;SDS011;8222;51.462;12.630;2023-02-08T11:22:13;35.53;;;26.23;;
16228;SDS011;8222;51.462;12.630;2023-02-08T11:24:40;37.03;;;29.17;;
16228;SDS011;8222;51.462;12.630;2023-02-08T11:32:39;36.33;;;29.17;;
16228;SDS011;8222;51.462;12.630;2023-02-08T11:35:25;34.00;;;29.15;;
16228;SDS011;8222;51.462;12.630;2023-02-08T11:37:55;40.57;;;30.50;;
16228;SDS011;8222;51.462;12.630;2023-02-08T11:40:27;33.70;;;26.17;;
16228;SDS011;8222;51.462;12.630;2023-02-08T11:42:58;37.83;;;28.75;;
16228;SDS011;8222;51.462;12.630;2023-02-08T11:45:26;36.03;;;28.00;;
16228;SDS011;8222;51.462;12.630;2023-02-08T11:47:57;37.90;;;27.85;;
16228;SDS011;8222;51.462;12.630;2023-02-08T11:53:06;36.88;;;29.83;;
16228;SDS011;8222;51.462;12.630;2023-02-08T11:55:44;36.07;;;24.67;;
16228;SDS011;8222;51.462;12.630;2023-02-08T11:58:24;36.65;;;28.92;;
16228;SDS011;8222;51.462;12.630;2023-02-08T12:00:59;37.83;;;28.98;;
16228;SDS011;8222;51.462;12.630;2023-02-08T12:03:28;37.65;;;29.73;;
16228;SDS011;8222;51.462;12.630;2023-02-08T12:08:50;33.25;;;27.60;;
16228;SDS011;8222;51.462;12.630;2023-02-08T12:16:56;35.03;;;27.88;;
16228;SDS011;8222;51.462;12.630;2023-02-08T12:22:28;33.63;;;26.10;;
16228;SDS011;8222;51.462;12.630;2023-02-08T12:25:02;37.28;;;27.70;;
16228;SDS011;8222;51.462;12.630;2023-02-08T12:41:31;33.47;;;27.13;;
16228;SDS011;8222;51.462;12.630;2023-02-08T12:49:32;36.88;;;30.33;;
16228;SDS011;8222;51.462;12.630;2023-02-08T12:57:54;37.65;;;30.38;;
16228;SDS011;8222;51.462;12.630;2023-02-08T13:05:38;34.33;;;29.65;;
16228;SDS011;8222;51.462;12.630;2023-02-08T13:08:16;38.72;;;26.65;;
16228;SDS011;8222;51.462;12.630;2023-02-08T13:11:02;35.33;;;28.83;;
16228;SDS011;8222;51.462;12.630;2023-02-08T13:13:34;35.67;;;28.90;;
16228;SDS011;8222;51.462;12.630;2023-02-08T13:16:08;34.78;;;28.17;;
16228;SDS011;8222;51.462;12.630;2023-02-08T13:18:42;38.22;;;29.63;;
16228;SDS011;8222;51.462;12.630;2023-02-08T13:21:16;38.05;;;29.40;;
16228;SDS011;8222;51.462;12.630;2023-02-08T13:23:47;39.90;;;31.48;;
16228;SDS011;8222;51.462;12.630;2023-02-08T13:26:24;37.40;;;29.05;;
16228;SDS011;8222;51.462;12.630;2023-02-08T13:28:58;38.55;;;29.83;;
16228;SDS011;8222;51.462;12.630;2023-02-08T13:34:35;37.30;;;28.23;;
16228;SDS011;8222;51.462;12.630;2023-02-08T13:37:21;38.30;;;29.30;;
16228;SDS011;8222;51.462;12.630;2023-02-08T13:39:59;38.03;;;26.30;;
16228;SDS011;8222;51.462;12.630;2023-02-08T13:45:21;36.22;;;28.60;;
16228;SDS011;8222;51.462;12.630;2023-02-08T13:47:55;38.10;;;30.08;;
16228;SDS011;8222;51.462;12.630;2023-02-08T13:53:04;34.95;;;28.63;;
16228;SDS011;8222;51.462;12.630;2023-02-08T14:06:36;35.20;;;28.00;;
16228;SDS011;8222;51.462;12.630;2023-02-08T14:11:55;37.45;;;28.50;;
16228;SDS011;8222;51.462;12.630;2023-02-08T14:14:31;39.42;;;27.77;;
16228;SDS011;8222;51.462;12.630;2023-02-08T14:17:16;37.53;;;29.73;;
16228;SDS011;8222;51.462;12.630;2023-02-08T14:19:55;38.67;;;31.08;;
16228;SDS011;8222;51.462;12.630;2023-02-08T14:22:23;36.13;;;27.30;;
16228;SDS011;8222;51.462;12.630;2023-02-08T14:30:28;33.85;;;27.50;;
16228;SDS011;8222;51.462;12.630;2023-02-08T14:35:38;36.63;;;27.48;;
16228;SDS011;8222;51.462;12.630;2023-02-08T14:40:52;37.13;;;28.05;;
16228;SDS011;8222;51.462;12.630;2023-02-08T14:43:30;33.25;;;26.95;;
16228;SDS011;8222;51.462;12.630;2023-02-08T14:45:56;34.50;;;27.77;;
16228;SDS011;8222;51.462;12.630;2023-02-08T14:53:55;31.27;;;24.42;;
16228;SDS011;8222;51.462;12.630;2023-02-08T14:56:34;31.50;;;21.90;;
16228;SDS011;8222;51.462;12.630;2023-02-08T14:59:12;31.45;;;25.35;;
16228;SDS011;8222;51.462;12.630;2023-02-08T15:04:14;34.10;;;26.03;;
16228;SDS011;8222;51.462;12.630;2023-02-08T15:09:35;31.00;;;25.53;;
16228;SDS011;8222;51.462;12.630;2023-02-08T15:12:06;29.60;;;23.03;;
16228;SDS011;8222;51.462;12.630;2023-02-08T15:14:39;37.30;;;27.27;;
16228;SDS011;8222;51.462;12.630;2023-02-08T15:17:06;37.53;;;27.48;;
16228;SDS011;8222;51.462;12.630;2023-02-08T15:19:59;36.20;;;27.67;;
16228;SDS011;8222;51.462;12.630;2023-02-08T15:22:30;33.95;;;26.05;;
16228;SDS011;8222;51.462;12.630;2023-02-08T15:25:09;37.63;;;29.15;;
16228;SDS011;8222;51.462;12.630;2023-02-08T15:27:46;37.45;;;28.58;;
16228;SDS011;8222;51.462;12.630;2023-02-08T15:30:32;34.28;;;26.55;;
16228;SDS011;8222;51.462;12.630;2023-02-08T15:33:01;37.00;;;29.38;;
16228;SDS011;8222;51.462;12.630;2023-02-08T15:35:32;40.30;;;30.20;;
16228;SDS011;8222;51.462;12.630;2023-02-08T15:37:59;32.30;;;26.55;;
16228;SDS011;8222;51.462;12.630;2023-02-08T15:40:29;34.75;;;27.55;;
16228;SDS011;8222;51.462;12.630;2023-02-08T15:43:30;41.35;;;29.48;;
16228;SDS011;8222;51.462;12.630;2023-02-08T15:45:57;38.35;;;28.40;;
16228;SDS011;8222;51.462;12.630;2023-02-08T15:48:24;35.58;;;26.40;;
16228;SDS011;8222;51.462;12.630;2023-02-08T15:50:52;32.30;;;24.17;;
16228;SDS011;8222;51.462;12.630;2023-02-08T15:53:18;34.55;;;25.60;;
16228;SDS011;8222;51.462;12.630;2023-02-08T15:55:46;34.63;;;26.60;;
16228;SDS011;8222;51.462;12.630;2023-02-08T16:00:42;36.33;;;24.60;;
16228;SDS011;8222;51.462;12.630;2023-02-08T16:03:19;33.23;;;23.77;;
16228;SDS011;8222;51.462;12.630;2023-02-08T16:05:54;33.33;;;23.87;;
16228;SDS011;8222;51.462;12.630;2023-02-08T16:08:26;26.00;;;19.07;;
16228;SDS011;8222;51.462;12.630;2023-02-08T16:11:01;29.95;;;23.00;;
16228;SDS011;8222;51.462;12.630;2023-02-08T16:13:33;34.65;;;23.48;;
16228;SDS011;8222;51.462;12.630;2023-02-08T16:18:43;31.70;;;22.15;;
16228;SDS011;8222;51.462;12.630;2023-02-08T16:21:38;29.08;;;22.02;;
16228;SDS011;8222;51.462;12.630;2023-02-08T16:29:29;27.92;;;19.67;;
16228;SDS011;8222;51.462;12.630;2023-02-08T16:31:58;28.17;;;20.67;;
16228;SDS011;8222;51.462;12.630;2023-02-08T16:34:33;25.33;;;18.77;;
16228;SDS011;8222;51.462;12.630;2023-02-08T16:37:00;31.25;;;21.60;;
16228;SDS011;8222;51.462;12.630;2023-02-08T16:39:38;27.40;;;20.63;;
16228;SDS011;8222;51.462;12.630;2023-02-08T16:42:39;30.38;;;20.75;;
16228;SDS011;8222;51.462;12.630;2023-02-08T16:47:38;24.77;;;19.10;;
16228;SDS011;8222;51.462;12.630;2023-02-08T16:50:19;25.23;;;18.27;;
16228;SDS011;8222;51.462;12.630;2023-02-08T16:52:47;26.13;;;18.80;;
16228;SDS011;8222;51.462;12.630;2023-02-08T16:55:22;27.97;;;20.03;;
16228;SDS011;8222;51.462;12.630;2023-02-08T16:57:51;23.90;;;15.90;;
16228;SDS011;8222;51.462;12.630;2023-02-08T17:00:20;25.27;;;17.77;;
16228;SDS011;8222;51.462;12.630;2023-02-08T17:02:50;24.30;;;17.80;;
16228;SDS011;8222;51.462;12.630;2023-02-08T17:05:18;24.38;;;18.27;;
16228;SDS011;8222;51.462;12.630;2023-02-08T17:07:45;25.17;;;18.73;;
16228;SDS011;8222;51.462;12.630;2023-02-08T17:10:25;26.77;;;18.70;;
16228;SDS011;8222;51.462;12.630;2023-02-08T17:12:56;26.33;;;20.20;;
16228;SDS011;8222;51.462;12.630;2023-02-08T17:15:24;25.97;;;16.10;;
16228;SDS011;8222;51.462;12.630;2023-02-08T17:17:50;23.53;;;16.33;;
16228;SDS011;8222;51.462;12.630;2023-02-08T17:20:27;27.38;;;19.92;;
16228;SDS011;8222;51.462;12.630;2023-02-08T17:22:55;29.35;;;21.30;;
16228;SDS011;8222;51.462;12.630;2023-02-08T17:25:23;28.30;;;20.50;;
16228;SDS011;8222;51.462;12.630;2023-02-08T17:28:09;41.63;;;29.10;;
16228;SDS011;8222;51.462;12.630;2023-02-08T17:30:40;26.65;;;21.65;;
16228;SDS011;8222;51.462;12.630;2023-02-08T17:33:09;25.83;;;19.67;;
16228;SDS011;8222;51.462;12.630;2023-02-08T17:35:41;28.38;;;20.42;;